createdAt,value
2023-03-27T00:04:17.931Z,5.30
2023-03-27T00:19:21.440Z,5.70
2023-03-27T00:34:23.808Z,5.70
2023-03-27T00:49:30.564Z,6.00
2023-03-27T01:04:35.989Z,6.00
2023-03-27T01:20:04.601Z,6.30
2023-03-27T01:35:32.340Z,6.20
2023-03-27T01:51:10.284Z,6.10
2023-03-27T02:06:28.265Z,6.00
2023-03-27T02:21:33.897Z,6.00
2023-03-27T02:36:50.855Z,6.10
2023-03-27T02:52:00.200Z,6.00
2023-03-27T03:07:06.323Z,6.00
2023-03-27T03:22:09.491Z,6.00
2023-03-27T03:37:13.282Z,5.80
2023-03-27T03:52:16.271Z,5.70
2023-03-27T04:07:21.620Z,5.60
2023-03-27T04:22:28.033Z,5.80
2023-03-27T04:37:31.667Z,5.90
2023-03-27T04:52:42.435Z,6.00
2023-03-27T05:07:46.595Z,6.10
2023-03-27T05:22:57.658Z,6.10
2023-03-27T05:38:04.182Z,5.80
2023-03-27T05:53:15.613Z,5.80
2023-03-27T06:08:46.105Z,5.80
2023-03-27T06:23:48.857Z,5.80
2023-03-27T06:38:54.248Z,5.70
2023-03-27T06:53:57.102Z,6.00
2023-03-27T07:08:59.623Z,5.90
2023-03-27T07:24:02.238Z,6.20
2023-03-27T07:39:09.344Z,6.30
2023-03-27T07:54:13.283Z,6.60
2023-03-27T08:09:21.566Z,6.70
2023-03-27T08:24:24.255Z,6.70
2023-03-27T08:39:41.973Z,6.70
2023-03-27T08:54:50.855Z,6.80
2023-03-27T09:10:15.233Z,6.70
2023-03-27T09:25:35.607Z,6.80
2023-03-27T09:41:10.911Z,7.10
2023-03-27T09:56:16.215Z,6.80
2023-03-27T10:11:28.566Z,7.80
2023-03-27T10:26:37.846Z,8.00
2023-03-27T10:41:41.041Z,8.30
2023-03-27T10:57:05.889Z,8.20
2023-03-27T11:12:14.502Z,8.40
2023-03-27T11:27:48.075Z,8.80
2023-03-27T11:42:51.563Z,9.30
2023-03-27T11:58:07.955Z,9.00
2023-03-27T12:13:41.187Z,8.40
2023-03-27T12:29:25.346Z,9.60
2023-03-27T12:45:06.166Z,9.50
2023-03-27T13:00:35.869Z,8.90
2023-03-27T13:15:51.708Z,8.30
2023-03-27T13:31:10.213Z,8.90
2023-03-27T13:46:29.189Z,8.90
2023-03-27T14:02:12.718Z,8.80
2023-03-27T14:17:26.583Z,9.40
2023-03-27T14:32:31.123Z,9.30
2023-03-27T14:47:36.987Z,9.50
2023-03-27T15:02:42.074Z,6.20
2023-03-27T15:17:46.128Z,8.20
2023-03-27T15:32:52.606Z,8.90
2023-03-27T15:48:05.935Z,6.70
2023-03-27T16:03:17.678Z,7.80
2023-03-27T16:18:36.688Z,8.00
2023-03-27T16:33:42.702Z,7.30
2023-03-27T16:48:45.130Z,6.80
2023-03-27T17:03:47.816Z,7.40
2023-03-27T17:18:51.737Z,8.90
2023-03-27T17:33:54.126Z,6.60
2023-03-27T17:48:57.879Z,6.40
2023-03-27T18:04:00.759Z,7.20
2023-03-27T18:19:03.467Z,7.20
2023-03-27T18:34:06.913Z,7.50
2023-03-27T18:49:21.541Z,7.80
2023-03-27T19:04:27.050Z,7.50
2023-03-27T19:19:31.759Z,7.20
2023-03-27T19:34:58.266Z,7.20
2023-03-27T19:50:01.027Z,7.10
2023-03-27T20:05:22.572Z,7.00
2023-03-27T20:20:25.002Z,7.00
2023-03-27T20:35:27.519Z,7.00
2023-03-27T20:50:31.693Z,6.90
2023-03-27T21:05:35.028Z,6.80
2023-03-27T21:20:38.411Z,6.50
2023-03-27T21:35:45.390Z,6.50
2023-03-27T21:50:47.956Z,6.10
2023-03-27T22:06:01.020Z,6.10
2023-03-27T22:21:25.491Z,6.10
2023-03-27T22:36:28.018Z,6.20
2023-03-27T22:51:31.277Z,6.20
2023-03-27T23:06:33.761Z,5.80
2023-03-27T23:21:36.208Z,5.70
2023-03-27T23:36:38.670Z,5.90
2023-03-27T23:51:41.171Z,5.50
